createdAt,value
2023-09-03T00:00:55.621Z,38.85
2023-09-03T00:03:43.570Z,36.13
2023-09-03T00:06:11.734Z,34.70
2023-09-03T00:08:39.558Z,38.92
2023-09-03T00:11:08.318Z,36.50
2023-09-03T00:13:36.154Z,38.05
2023-09-03T00:16:04.566Z,33.38
2023-09-03T00:18:33.710Z,39.25
2023-09-03T00:21:05.312Z,36.65
2023-09-03T00:26:03.668Z,34.42
2023-09-03T00:28:31.471Z,36.00
2023-09-03T00:31:09.659Z,35.00
2023-09-03T00:33:38.598Z,34.92
2023-09-03T00:36:10.073Z,36.33
2023-09-03T00:38:37.989Z,36.40
2023-09-03T00:41:06.363Z,37.35
2023-09-03T00:43:34.987Z,38.65
2023-09-03T00:46:09.429Z,38.45
2023-09-03T00:48:39.776Z,33.42
2023-09-03T00:51:12.688Z,34.92
2023-09-03T00:53:45.086Z,36.85
2023-09-03T00:56:14.106Z,34.50
2023-09-03T00:58:42.427Z,35.80
2023-09-03T01:01:11.650Z,33.78
2023-09-03T01:03:39.635Z,32.85
2023-09-03T01:06:08.103Z,36.40
2023-09-03T01:08:37.547Z,35.28
2023-09-03T01:11:27.770Z,33.03
2023-09-03T01:14:49.430Z,36.28
2023-09-03T01:17:38.894Z,34.92
2023-09-03T01:20:35.377Z,32.78
2023-09-03T01:23:17.712Z,35.10
2023-09-03T01:26:06.601Z,31.83
2023-09-03T01:28:40.873Z,31.92
2023-09-03T01:31:15.053Z,30.77
2023-09-03T01:33:45.644Z,29.67
2023-09-03T01:36:15.124Z,29.38
2023-09-03T01:38:43.307Z,28.38
2023-09-03T01:41:11.134Z,28.63
2023-09-03T01:43:43.281Z,26.73
2023-09-03T01:46:15.920Z,28.70
2023-09-03T01:48:50.315Z,28.40
2023-09-03T01:51:33.198Z,29.35
2023-09-03T01:54:09.631Z,31.35
2023-09-03T01:56:43.592Z,32.30
2023-09-03T01:59:20.430Z,29.00
2023-09-03T02:01:52.086Z,30.70
2023-09-03T02:04:20.772Z,32.13
2023-09-03T02:06:48.650Z,30.50
2023-09-03T02:09:19.072Z,33.80
2023-09-03T02:11:49.375Z,29.63
2023-09-03T02:14:17.526Z,34.78
2023-09-03T02:16:45.524Z,35.45
2023-09-03T02:19:13.636Z,33.30
2023-09-03T02:21:41.536Z,36.35
2023-09-03T02:24:09.669Z,35.63
2023-09-03T02:26:42.094Z,31.27
2023-09-03T02:29:10.436Z,33.53
2023-09-03T02:31:38.608Z,34.10
2023-09-03T02:34:08.518Z,32.53
2023-09-03T02:36:36.404Z,29.73
2023-09-03T02:39:06.758Z,36.78
2023-09-03T02:41:35.576Z,31.05
2023-09-03T02:44:04.330Z,32.83
2023-09-03T02:46:32.508Z,30.40
2023-09-03T02:49:01.221Z,33.38
2023-09-03T02:51:30.197Z,31.08
2023-09-03T02:53:58.231Z,34.58
2023-09-03T02:56:26.140Z,33.00
2023-09-03T02:58:54.281Z,32.90
2023-09-03T03:01:22.277Z,33.05
2023-09-03T03:03:50.737Z,33.08
2023-09-03T03:06:20.128Z,29.38
2023-09-03T03:08:48.228Z,30.25
2023-09-03T03:11:17.759Z,31.92
2023-09-03T03:13:56.698Z,29.67
2023-09-03T03:16:30.338Z,31.77
2023-09-03T03:18:59.973Z,29.88
2023-09-03T03:24:06.258Z,31.00
2023-09-03T03:26:39.471Z,31.38
2023-09-03T03:29:11.272Z,25.67
2023-09-03T03:31:47.213Z,23.83
2023-09-03T03:34:15.831Z,25.15
2023-09-03T03:36:45.746Z,25.55
2023-09-03T03:39:13.870Z,27.58
2023-09-03T03:41:42.011Z,23.63
2023-09-03T03:44:16.023Z,25.88
2023-09-03T03:46:45.503Z,24.90
2023-09-03T03:49:13.689Z,26.48
2023-09-03T03:51:41.612Z,25.42
2023-09-03T03:54:09.953Z,26.17
2023-09-03T03:56:37.781Z,27.42
2023-09-03T03:59:06.212Z,25.48
2023-09-03T04:01:34.771Z,28.13
2023-09-03T04:04:03.320Z,26.23
2023-09-03T04:06:33.005Z,27.35
2023-09-03T04:09:01.427Z,25.25
2023-09-03T04:11:29.342Z,26.05
2023-09-03T04:13:57.407Z,25.02
2023-09-03T04:16:25.950Z,28.00
2023-09-03T04:18:57.187Z,27.45
2023-09-03T04:21:25.440Z,24.38
2023-09-03T04:23:53.577Z,23.52
2023-09-03T04:26:22.346Z,27.45
2023-09-03T04:28:54.175Z,25.67
2023-09-03T04:31:22.142Z,24.10
2023-09-03T04:33:53.990Z,26.80
2023-09-03T04:36:21.799Z,26.00
2023-09-03T04:38:50.513Z,26.50
2023-09-03T04:41:20.106Z,25.65
2023-09-03T04:43:50.904Z,28.10
2023-09-03T04:48:50.272Z,29.80
2023-09-03T04:51:18.261Z,32.25
2023-09-03T04:53:48.134Z,32.25
2023-09-03T04:56:16.232Z,29.63
2023-09-03T05:01:19.401Z,33.75
2023-09-03T05:03:51.540Z,33.78
2023-09-03T05:06:21.766Z,31.20
2023-09-03T05:08:52.690Z,30.80
2023-09-03T05:11:21.666Z,33.03
2023-09-03T05:13:51.403Z,34.45
2023-09-03T05:16:24.060Z,34.90
2023-09-03T05:18:52.699Z,33.58
2023-09-03T05:21:21.233Z,35.33
2023-09-03T05:23:50.369Z,36.83
2023-09-03T05:26:18.111Z,34.88
2023-09-03T05:28:46.475Z,36.22
2023-09-03T05:31:14.284Z,35.72
2023-09-03T05:33:46.234Z,40.90
2023-09-03T05:36:15.012Z,38.78
2023-09-03T05:38:44.244Z,35.72
2023-09-03T05:41:12.711Z,40.10
2023-09-03T05:43:40.944Z,40.67
2023-09-03T05:46:08.938Z,40.67
2023-09-03T05:48:37.825Z,38.13
2023-09-03T05:51:09.427Z,86.03
2023-09-03T05:53:40.740Z,143.48
2023-09-03T05:56:10.380Z,122.53
2023-09-03T05:58:40.153Z,88.13
2023-09-03T06:01:10.494Z,153.10
2023-09-03T06:03:40.639Z,147.18
2023-09-03T06:06:12.033Z,52.63
2023-09-03T06:08:43.521Z,72.17
2023-09-03T06:11:11.403Z,105.90
2023-09-03T06:13:39.597Z,136.90
2023-09-03T06:16:07.627Z,65.05
2023-09-03T06:18:35.865Z,59.50
2023-09-03T06:21:03.963Z,49.15
2023-09-03T06:23:32.452Z,51.53
2023-09-03T06:26:00.270Z,42.97
2023-09-03T06:28:29.398Z,94.35
2023-09-03T06:31:00.879Z,38.80
2023-09-03T06:33:29.974Z,46.03
2023-09-03T06:35:57.814Z,40.95
2023-09-03T06:38:25.876Z,33.90
2023-09-03T06:40:53.844Z,37.53
2023-09-03T06:43:22.309Z,39.25
2023-09-03T06:45:50.415Z,37.40
2023-09-03T06:48:18.576Z,29.42
2023-09-03T06:50:46.512Z,43.88
2023-09-03T06:53:14.584Z,42.78
2023-09-03T06:55:45.902Z,32.28
2023-09-03T06:58:14.338Z,33.70
2023-09-03T07:00:43.567Z,27.92
2023-09-03T07:03:12.041Z,34.75
2023-09-03T07:05:39.920Z,29.58
2023-09-03T07:08:08.258Z,31.42
2023-09-03T07:10:36.174Z,28.35
2023-09-03T07:13:04.518Z,32.13
2023-09-03T07:15:33.425Z,27.30
2023-09-03T07:18:01.525Z,27.27
2023-09-03T07:20:29.338Z,27.88
2023-09-03T07:22:57.473Z,27.60
2023-09-03T07:25:26.362Z,27.35
2023-09-03T07:27:54.556Z,24.58
2023-09-03T07:30:22.426Z,24.65
2023-09-03T07:32:50.564Z,25.23
2023-09-03T07:35:18.882Z,24.95
2023-09-03T07:37:47.559Z,24.08
2023-09-03T07:40:15.661Z,25.50
2023-09-03T07:42:43.771Z,22.50
2023-09-03T07:45:14.039Z,20.73
2023-09-03T07:47:42.144Z,25.23
2023-09-03T07:50:10.457Z,21.60
2023-09-03T07:52:38.711Z,23.75
2023-09-03T07:55:07.034Z,19.48
2023-09-03T07:57:35.209Z,20.67
2023-09-03T08:00:04.022Z,22.15
2023-09-03T08:02:41.004Z,21.73
2023-09-03T08:07:37.007Z,23.63
2023-09-03T08:10:05.775Z,22.20
2023-09-03T08:12:33.617Z,21.20
2023-09-03T08:15:01.755Z,22.25
2023-09-03T08:17:32.319Z,23.70
2023-09-03T08:20:00.945Z,23.00
2023-09-03T08:22:29.511Z,22.88
2023-09-03T08:24:57.563Z,22.70
2023-09-03T08:27:25.419Z,23.15
2023-09-03T08:29:53.789Z,26.70
2023-09-03T08:32:21.608Z,19.63
2023-09-03T08:34:49.725Z,21.65
2023-09-03T08:37:17.501Z,22.05
2023-09-03T08:39:45.546Z,20.60
2023-09-03T08:42:15.227Z,19.45
2023-09-03T08:44:55.701Z,17.20
2023-09-03T08:47:25.061Z,18.38
2023-09-03T08:49:54.510Z,15.95
2023-09-03T08:52:22.928Z,16.70
2023-09-03T08:54:52.016Z,14.15
2023-09-03T08:57:20.048Z,15.88
2023-09-03T08:59:48.162Z,16.40
2023-09-03T09:02:18.424Z,15.65
2023-09-03T09:04:48.264Z,16.73
2023-09-03T09:07:17.124Z,17.77
2023-09-03T09:09:47.421Z,17.52
2023-09-03T09:12:28.387Z,14.98
2023-09-03T09:15:06.653Z,15.73
2023-09-03T09:17:53.009Z,15.07
2023-09-03T09:20:21.302Z,14.57
2023-09-03T09:22:50.517Z,16.92
2023-09-03T09:25:19.401Z,19.15
2023-09-03T09:27:47.329Z,16.60
2023-09-03T09:30:17.829Z,15.60
2023-09-03T09:32:46.437Z,14.67
2023-09-03T09:35:25.447Z,13.57
2023-09-03T09:37:53.362Z,15.18
2023-09-03T09:40:29.985Z,12.88
2023-09-03T09:43:02.653Z,13.57
2023-09-03T09:45:32.171Z,14.32
2023-09-03T09:48:07.850Z,13.38
2023-09-03T09:50:40.957Z,13.52
2023-09-03T09:53:20.891Z,13.27
2023-09-03T09:55:59.257Z,14.30
2023-09-03T09:58:41.558Z,14.02
2023-09-03T10:01:10.460Z,15.05
2023-09-03T10:03:46.771Z,17.67
2023-09-03T10:06:16.026Z,14.43
2023-09-03T10:08:48.307Z,17.75
2023-09-03T10:11:20.731Z,15.90
2023-09-03T10:13:51.811Z,19.75
2023-09-03T10:16:21.108Z,16.77
2023-09-03T10:18:50.968Z,15.70
2023-09-03T10:21:23.453Z,16.75
2023-09-03T10:23:57.084Z,15.25
2023-09-03T10:26:34.732Z,14.07
2023-09-03T10:29:06.048Z,15.32
2023-09-03T10:31:37.731Z,15.68
2023-09-03T10:34:14.196Z,16.40
2023-09-03T10:37:11.951Z,16.70
2023-09-03T10:39:42.061Z,14.85
2023-09-03T10:42:16.586Z,14.73
2023-09-03T10:44:46.414Z,16.23
2023-09-03T10:47:18.494Z,15.23
2023-09-03T10:49:51.854Z,15.75
2023-09-03T10:52:41.518Z,16.95
2023-09-03T10:55:25.107Z,17.20
2023-09-03T10:58:11.863Z,20.10
2023-09-03T11:00:39.716Z,19.75
2023-09-03T11:03:18.991Z,18.13
2023-09-03T11:06:16.635Z,15.95
2023-09-03T11:08:45.098Z,15.18
2023-09-03T11:11:21.057Z,17.15
2023-09-03T11:13:51.110Z,15.32
2023-09-03T11:16:19.481Z,15.55
2023-09-03T11:18:50.977Z,20.90
2023-09-03T11:21:23.817Z,17.25
2023-09-03T11:24:14.584Z,18.30
2023-09-03T11:26:43.024Z,19.10
2023-09-03T11:29:21.401Z,15.90
2023-09-03T11:31:50.163Z,16.40
2023-09-03T11:34:30.367Z,13.50
2023-09-03T11:36:58.991Z,16.08
2023-09-03T11:39:27.123Z,15.25
2023-09-03T11:41:55.101Z,18.20
2023-09-03T11:44:24.677Z,15.88
2023-09-03T11:47:02.888Z,15.75
2023-09-03T11:49:31.604Z,18.00
2023-09-03T11:52:12.730Z,15.80
2023-09-03T11:54:41.365Z,13.00
2023-09-03T11:57:16.971Z,13.82
2023-09-03T11:59:45.374Z,13.82
2023-09-03T12:02:14.717Z,14.73
2023-09-03T12:04:44.593Z,13.95
2023-09-03T12:07:17.062Z,15.05
2023-09-03T12:09:48.472Z,15.20
2023-09-03T12:14:44.462Z,14.40
2023-09-03T12:17:12.263Z,16.98
2023-09-03T12:19:43.802Z,11.98
2023-09-03T12:22:15.218Z,10.10
2023-09-03T12:24:43.359Z,16.25
2023-09-03T12:27:11.138Z,13.00
2023-09-03T12:29:52.069Z,14.55
2023-09-03T12:32:35.160Z,16.77
2023-09-03T12:35:15.874Z,16.83
2023-09-03T12:37:43.659Z,17.52
2023-09-03T12:40:11.951Z,16.75
2023-09-03T12:42:39.924Z,16.27
2023-09-03T12:45:09.203Z,14.30
2023-09-03T12:47:37.777Z,12.73
2023-09-03T12:50:06.392Z,14.45
2023-09-03T12:52:34.479Z,16.98
2023-09-03T12:55:05.014Z,12.93
2023-09-03T12:57:32.921Z,17.33
2023-09-03T13:00:02.291Z,18.92
2023-09-03T13:02:30.895Z,13.25
2023-09-03T13:04:59.087Z,14.73
2023-09-03T13:07:26.950Z,13.52
2023-09-03T13:09:55.066Z,13.25
2023-09-03T13:12:22.832Z,13.60
2023-09-03T13:14:50.845Z,12.80
2023-09-03T13:17:18.683Z,16.27
2023-09-03T13:19:46.847Z,13.90
2023-09-03T13:22:14.649Z,17.00
2023-09-03T13:24:42.859Z,12.52
2023-09-03T13:27:10.600Z,9.80
2023-09-03T13:29:38.741Z,14.65
2023-09-03T13:32:06.647Z,12.10
2023-09-03T13:34:34.969Z,11.30
2023-09-03T13:37:02.770Z,10.63
2023-09-03T13:39:31.655Z,10.85
2023-09-03T13:41:59.719Z,11.80
2023-09-03T13:44:27.871Z,9.70
2023-09-03T13:46:55.738Z,11.18
2023-09-03T13:49:23.928Z,9.30
2023-09-03T13:51:51.752Z,10.35
2023-09-03T13:54:19.858Z,9.45
2023-09-03T13:56:47.602Z,9.75
2023-09-03T13:59:15.739Z,11.73
2023-09-03T14:01:43.881Z,11.25
2023-09-03T14:04:12.071Z,11.23
2023-09-03T14:06:39.898Z,9.50
2023-09-03T14:09:08.425Z,10.82
2023-09-03T14:11:39.043Z,9.45
2023-09-03T14:14:07.479Z,11.27
2023-09-03T14:16:35.372Z,11.32
2023-09-03T14:19:03.659Z,9.98
2023-09-03T14:21:31.579Z,21.17
2023-09-03T14:23:59.653Z,18.55
2023-09-03T14:26:27.475Z,10.40
2023-09-03T14:28:56.545Z,12.70
2023-09-03T14:31:24.596Z,11.30
2023-09-03T14:33:52.926Z,10.00
2023-09-03T14:36:20.725Z,8.43
2023-09-03T14:38:48.762Z,8.82
2023-09-03T14:41:16.721Z,9.80
2023-09-03T14:43:45.016Z,9.63
2023-09-03T14:46:12.983Z,9.43
2023-09-03T14:48:41.858Z,10.43
2023-09-03T14:51:09.727Z,9.65
2023-09-03T14:53:37.820Z,9.98
2023-09-03T14:56:05.757Z,10.32
2023-09-03T14:58:33.911Z,9.95
2023-09-03T15:01:15.175Z,18.25
2023-09-03T15:03:43.429Z,26.05
2023-09-03T15:06:11.525Z,52.15
2023-09-03T15:08:41.698Z,15.82
2023-09-03T15:11:11.040Z,16.65
2023-09-03T15:13:42.768Z,36.33
2023-09-03T15:16:11.342Z,8.75
2023-09-03T15:18:39.762Z,8.77
2023-09-03T15:21:08.525Z,10.95
2023-09-03T15:23:36.679Z,18.95
2023-09-03T15:26:04.672Z,22.55
2023-09-03T15:28:32.954Z,16.23
2023-09-03T15:31:01.106Z,8.98
2023-09-03T15:33:29.369Z,29.77
2023-09-03T15:35:57.155Z,16.13
2023-09-03T15:38:25.347Z,8.40
2023-09-03T15:40:53.169Z,8.82
2023-09-03T15:43:22.618Z,10.38
2023-09-03T15:45:52.431Z,15.48
2023-09-03T15:48:21.283Z,15.40
2023-09-03T15:50:49.301Z,12.95
2023-09-03T15:53:19.243Z,7.93
2023-09-03T15:55:47.174Z,13.35
2023-09-03T15:58:16.463Z,12.05
2023-09-03T16:00:46.217Z,28.35
2023-09-03T16:03:15.003Z,19.52
2023-09-03T16:05:46.787Z,18.98
2023-09-03T16:08:16.289Z,11.50
2023-09-03T16:10:44.243Z,16.30
2023-09-03T16:13:12.503Z,9.27
2023-09-03T16:15:41.697Z,10.77
2023-09-03T16:18:10.672Z,11.63
2023-09-03T16:20:38.527Z,12.18
2023-09-03T16:23:08.264Z,11.63
2023-09-03T16:25:37.034Z,19.92
2023-09-03T16:28:05.514Z,40.08
2023-09-03T16:30:34.798Z,37.55
2023-09-03T16:33:03.303Z,18.50
2023-09-03T16:35:33.669Z,20.52
2023-09-03T16:38:01.739Z,15.02
2023-09-03T16:40:29.958Z,22.20
2023-09-03T16:42:58.162Z,17.90
2023-09-03T16:45:25.971Z,18.50
2023-09-03T16:47:56.500Z,19.35
2023-09-03T16:50:24.290Z,22.67
2023-09-03T16:52:52.446Z,46.50
2023-09-03T16:55:20.315Z,57.92
2023-09-03T16:57:48.636Z,160.35
2023-09-03T17:00:16.545Z,56.40
2023-09-03T17:03:34.316Z,55.80
2023-09-03T17:06:02.936Z,31.27
2023-09-03T17:08:30.778Z,28.73
2023-09-03T17:11:02.555Z,36.53
2023-09-03T17:13:30.709Z,42.78
2023-09-03T17:15:58.926Z,64.03
2023-09-03T17:18:27.240Z,114.35
2023-09-03T17:20:55.576Z,104.70
2023-09-03T17:25:40.600Z,52.60
2023-09-03T17:29:50.472Z,80.70
2023-09-03T17:32:20.591Z,45.03
2023-09-03T17:34:48.537Z,34.08
2023-09-03T17:37:16.617Z,41.30
2023-09-03T17:39:44.369Z,27.40
2023-09-03T17:42:12.433Z,47.35
2023-09-03T17:44:40.224Z,29.77
2023-09-03T17:47:08.299Z,33.30
2023-09-03T17:49:36.125Z,20.73
2023-09-03T17:52:04.497Z,37.67
2023-09-03T17:54:32.247Z,25.17
2023-09-03T17:57:00.248Z,19.77
2023-09-03T17:59:28.001Z,21.77
2023-09-03T18:01:56.167Z,24.08
2023-09-03T18:04:26.312Z,31.73
2023-09-03T18:06:54.402Z,47.42
2023-09-03T18:09:22.241Z,31.10
2023-09-03T18:11:51.629Z,34.65
2023-09-03T18:14:19.456Z,21.83
2023-09-03T18:16:47.505Z,22.30
2023-09-03T18:19:15.653Z,22.20
2023-09-03T18:21:43.762Z,22.80
2023-09-03T18:24:11.589Z,24.05
2023-09-03T18:26:39.848Z,25.35
2023-09-03T18:29:07.918Z,29.92
2023-09-03T18:31:36.056Z,28.48
2023-09-03T18:34:04.635Z,34.20
2023-09-03T18:36:32.916Z,43.65
2023-09-03T18:39:00.897Z,35.38
2023-09-03T18:41:29.031Z,27.92
2023-09-03T18:43:56.844Z,23.92
2023-09-03T18:46:24.964Z,27.08
2023-09-03T18:48:52.790Z,25.05
2023-09-03T18:51:21.036Z,27.00
2023-09-03T18:53:49.505Z,25.98
2023-09-03T18:56:18.156Z,26.17
2023-09-03T18:58:46.513Z,30.83
2023-09-03T19:01:17.561Z,39.08
2023-09-03T19:03:48.942Z,34.42
2023-09-03T19:06:21.409Z,30.38
2023-09-03T19:08:51.718Z,32.35
2023-09-03T19:11:20.180Z,30.48
2023-09-03T19:13:48.047Z,39.42
2023-09-03T19:16:21.384Z,35.08
2023-09-03T19:18:50.185Z,29.42
2023-09-03T19:21:18.933Z,27.67
2023-09-03T19:23:47.024Z,25.40
2023-09-03T19:26:18.287Z,24.73
2023-09-03T19:28:46.835Z,24.65
2023-09-03T19:31:15.012Z,28.63
2023-09-03T19:33:43.402Z,23.27
2023-09-03T19:36:12.525Z,33.03
2023-09-03T19:38:40.538Z,42.42
2023-09-03T19:41:08.764Z,47.70
2023-09-03T19:43:36.542Z,30.27
2023-09-03T19:46:04.634Z,29.45
2023-09-03T19:48:33.816Z,26.73
2023-09-03T19:51:02.776Z,21.95
2023-09-03T19:53:32.476Z,22.42
2023-09-03T19:56:12.076Z,22.40
2023-09-03T19:58:40.014Z,22.73
2023-09-03T20:01:08.241Z,21.92
2023-09-03T20:03:38.677Z,24.70
2023-09-03T20:06:06.809Z,22.55
2023-09-03T20:08:34.904Z,23.88
2023-09-03T20:11:04.376Z,23.10
2023-09-03T20:13:32.845Z,22.50
2023-09-03T20:16:02.101Z,22.83
2023-09-03T20:18:30.348Z,22.77
2023-09-03T20:21:01.061Z,23.17
2023-09-03T20:23:29.627Z,23.67
2023-09-03T20:26:05.311Z,22.63
2023-09-03T20:28:46.155Z,23.50
2023-09-03T20:31:16.650Z,23.35
2023-09-03T20:33:45.167Z,22.85
2023-09-03T20:36:13.412Z,21.95
2023-09-03T20:38:41.711Z,24.63
2023-09-03T20:41:10.402Z,23.98
2023-09-03T20:43:38.504Z,23.80
2023-09-03T20:46:06.636Z,20.73
2023-09-03T20:48:34.704Z,21.42
2023-09-03T20:51:03.384Z,21.10
2023-09-03T20:53:31.575Z,21.63
2023-09-03T20:56:00.247Z,19.30
2023-09-03T20:58:28.658Z,21.17
2023-09-03T21:00:56.804Z,20.38
2023-09-03T21:03:24.909Z,21.77
2023-09-03T21:05:54.010Z,23.90
2023-09-03T21:08:25.168Z,22.85
2023-09-03T21:11:01.460Z,20.38
2023-09-03T21:13:31.151Z,20.55
2023-09-03T21:16:04.175Z,23.00
2023-09-03T21:18:32.118Z,22.50
2023-09-03T21:21:05.113Z,21.27
2023-09-03T21:23:34.587Z,23.45
2023-09-03T21:26:03.190Z,20.52
2023-09-03T21:28:31.110Z,22.13
2023-09-03T21:30:59.216Z,24.02
2023-09-03T21:33:27.145Z,22.15
2023-09-03T21:35:57.449Z,22.52
2023-09-03T21:38:25.753Z,22.33
2023-09-03T21:40:54.148Z,18.80
2023-09-03T21:43:22.809Z,19.23
2023-09-03T21:45:50.929Z,20.77
2023-09-03T21:48:21.757Z,21.50
2023-09-03T21:50:52.651Z,20.17
2023-09-03T21:53:23.466Z,20.75
2023-09-03T21:55:51.520Z,21.85
2023-09-03T21:58:19.321Z,21.05
2023-09-03T22:00:47.508Z,19.88
2023-09-03T22:03:18.380Z,28.65
2023-09-03T22:08:15.155Z,24.02
2023-09-03T22:10:43.206Z,26.17
2023-09-03T22:13:10.996Z,26.45
2023-09-03T22:15:39.103Z,28.33
2023-09-03T22:18:07.348Z,28.42
2023-09-03T22:20:35.810Z,27.30
2023-09-03T22:23:03.592Z,27.52
2023-09-03T22:25:31.672Z,27.23
2023-09-03T22:28:00.673Z,26.00
2023-09-03T22:30:29.103Z,26.40
2023-09-03T22:32:57.593Z,27.45
2023-09-03T22:35:25.839Z,30.88
2023-09-03T22:37:53.596Z,26.33
2023-09-03T22:40:21.649Z,28.40
2023-09-03T22:42:49.625Z,29.30
2023-09-03T22:45:17.755Z,29.35
2023-09-03T22:47:45.779Z,31.90
2023-09-03T22:50:13.884Z,33.55
2023-09-03T22:52:43.883Z,32.15
2023-09-03T22:55:12.234Z,27.27
2023-09-03T22:57:40.099Z,29.65
2023-09-03T23:00:08.777Z,31.67
2023-09-03T23:02:36.555Z,30.33
2023-09-03T23:05:07.312Z,28.00
2023-09-03T23:07:35.177Z,27.13
2023-09-03T23:10:06.803Z,28.63
2023-09-03T23:12:34.572Z,29.75
2023-09-03T23:15:02.569Z,26.42
2023-09-03T23:17:32.870Z,29.65
2023-09-03T23:20:05.163Z,28.17
2023-09-03T23:22:32.991Z,27.95
2023-09-03T23:25:04.920Z,31.58
2023-09-03T23:27:32.823Z,28.17
2023-09-03T23:30:01.001Z,27.25
2023-09-03T23:32:29.984Z,36.25
2023-09-03T23:34:58.086Z,37.88
2023-09-03T23:37:25.947Z,36.97
2023-09-03T23:39:54.003Z,31.67
2023-09-03T23:42:21.726Z,35.90
2023-09-03T23:46:23.521Z,32.55
2023-09-03T23:48:51.859Z,31.80
2023-09-03T23:51:19.626Z,29.85
2023-09-03T23:53:47.757Z,30.55
2023-09-03T23:56:20.397Z,34.78
2023-09-03T23:58:48.610Z,38.17
